Time;durP1;ratioP1;P1;durP2;ratioP2;P2;SDS_P1;SDS_P2;PMS_P1;PMS_P2;Temp;Humidity;BMP_temperature;BMP_pressure;BME280_temperature;BME280_humidity;BME280_pressure;Samples;Min_cycle;Max_cycle;Signal;HPM_P1;HPM_P2
2022/04/27 00:00:17;;;;;;;8.23;7.43;;;15.50;57.30;;;;;;5026956;28;20820;-43
2022/04/27 00:02:43;;;;;;;8.77;7.97;;;15.50;57.50;;;;;;5016530;28;20532;-43
2022/04/27 00:05:09;;;;;;;7.80;7.10;;;15.50;57.40;;;;;;5024678;28;20197;-43
2022/04/27 00:07:35;;;;;;;8.00;7.10;;;15.60;57.30;;;;;;5021121;28;20204;-43
2022/04/27 00:10:00;;;;;;;9.30;8.00;;;15.60;57.10;;;;;;5030163;28;20452;-45
2022/04/27 00:12:26;;;;;;;8.87;8.03;;;15.60;57.10;;;;;;5028229;28;20217;-43
2022/04/27 00:14:52;;;;;;;9.13;7.47;;;15.50;57.30;;;;;;5027909;28;20189;-43
2022/04/27 00:17:18;;;;;;;9.50;8.60;;;15.50;57.30;;;;;;5018094;28;20205;-44
2022/04/27 00:19:44;;;;;;;9.93;8.57;;;15.60;57.50;;;;;;5024513;28;20448;-43
2022/04/27 00:22:11;;;;;;;9.50;8.50;;;15.50;57.40;;;;;;5028502;28;20201;-44
2022/04/27 00:24:39;;;;;;;9.13;8.20;;;15.60;57.30;;;;;;5020492;28;20193;-44
2022/04/27 00:27:05;;;;;;;10.17;8.50;;;15.60;57.40;;;;;;5017255;28;20939;-43
2022/04/27 00:29:31;;;;;;;10.10;9.10;;;15.60;57.30;;;;;;5026702;28;20432;-43
2022/04/27 00:31:56;;;;;;;9.60;8.60;;;15.70;57.30;;;;;;5013178;28;20924;-44
2022/04/27 00:34:22;;;;;;;10.33;9.23;;;15.70;57.30;;;;;;5024379;28;20458;-43
2022/04/27 00:36:48;;;;;;;10.97;9.67;;;15.70;57.10;;;;;;5026686;28;20197;-44
2022/04/27 00:39:13;;;;;;;11.80;10.10;;;15.70;57.10;;;;;;5021544;28;20270;-44
2022/04/27 00:41:39;;;;;;;10.17;9.17;;;15.70;57.30;;;;;;5026205;28;20194;-45
2022/04/27 00:44:04;;;;;;;10.73;9.60;;;15.70;57.20;;;;;;5027415;28;20193;-44
2022/04/27 00:46:30;;;;;;;10.50;9.43;;;15.70;57.20;;;;;;5026049;28;20678;-44
2022/04/27 00:48:55;;;;;;;11.23;9.73;;;15.70;57.20;;;;;;5026472;28;20689;-43
2022/04/27 00:51:23;;;;;;;10.83;9.73;;;15.70;57.30;;;;;;5025568;28;21130;-44
2022/04/27 00:53:50;;;;;;;11.83;9.33;;;15.70;57.40;;;;;;5021086;28;20604;-43
2022/04/27 00:56:21;;;;;;;11.83;10.40;;;15.70;57.30;;;;;;5025502;28;20874;-43
2022/04/27 00:58:50;;;;;;;11.40;10.30;;;15.70;57.40;;;;;;5020821;28;20515;-43
2022/04/27 01:01:16;;;;;;;11.77;10.57;;;15.70;57.30;;;;;;5019693;28;20527;-43
2022/04/27 01:03:42;;;;;;;12.03;10.83;;;15.70;57.30;;;;;;5022673;28;20530;-44
2022/04/27 01:06:07;;;;;;;12.30;10.93;;;15.70;57.30;;;;;;5025231;28;20935;-44
2022/04/27 01:08:33;;;;;;;12.10;10.90;;;15.70;57.20;;;;;;5023891;28;20834;-43
2022/04/27 01:10:59;;;;;;;12.43;11.13;;;15.80;57.20;;;;;;5025347;28;20235;-44
2022/04/27 01:13:27;;;;;;;11.77;10.67;;;15.80;57.10;;;;;;5021298;28;20200;-43
2022/04/27 01:15:52;;;;;;;12.50;11.20;;;15.80;57.10;;;;;;5025568;28;20442;-44
2022/04/27 01:18:19;;;;;;;12.97;11.37;;;15.80;57.10;;;;;;5026729;28;20491;-43
2022/04/27 01:20:45;;;;;;;14.23;12.23;;;15.90;57.20;;;;;;5024289;28;20586;-43
2022/04/27 01:23:14;;;;;;;12.70;11.50;;;15.90;57.10;;;;;;5029688;28;20436;-45
2022/04/27 01:25:51;;;;;;;13.70;12.30;;;15.90;57.00;;;;;;5025538;28;20193;-44
2022/04/27 01:28:18;;;;;;;15.73;12.90;;;15.90;57.10;;;;;;5023052;28;20479;-44
2022/04/27 01:30:44;;;;;;;15.50;13.07;;;15.90;57.10;;;;;;5027596;28;20452;-45
2022/04/27 01:33:11;;;;;;;13.57;12.17;;;15.90;57.10;;;;;;5028635;28;20448;-43
2022/04/27 01:35:37;;;;;;;14.13;12.63;;;15.80;57.10;;;;;;5027133;28;20428;-43
2022/04/27 01:38:03;;;;;;;14.60;12.30;;;15.80;57.10;;;;;;5027395;28;20986;-43
2022/04/27 01:40:29;;;;;;;14.57;11.97;;;15.80;57.20;;;;;;5022083;28;20451;-44
2022/04/27 01:42:55;;;;;;;14.10;11.00;;;15.90;57.30;;;;;;5030471;28;20186;-43
2022/04/27 01:45:21;;;;;;;12.87;11.57;;;15.90;57.30;;;;;;5028791;28;20490;-46
2022/04/27 01:47:47;;;;;;;13.20;11.80;;;15.90;57.30;;;;;;5029164;28;20237;-43
2022/04/27 01:50:12;;;;;;;18.30;13.23;;;15.90;57.30;;;;;;5027510;28;20208;-43
2022/04/27 01:55:22;;;;;;;16.93;14.47;;;15.90;57.20;;;;;;5028646;28;20207;-44
2022/04/27 01:57:51;;;;;;;18.07;14.33;;;16.00;57.50;;;;;;5016477;28;20870;-44
2022/04/27 02:00:17;;;;;;;18.10;15.20;;;15.90;57.10;;;;;;5015959;28;20194;-44
2022/04/27 02:02:42;;;;;;;19.70;15.13;;;15.90;57.40;;;;;;5028770;28;20440;-43
2022/04/27 02:05:08;;;;;;;19.70;15.40;;;15.90;57.40;;;;;;5030181;28;20447;-44
2022/04/27 02:07:34;;;;;;;18.07;15.53;;;15.90;57.40;;;;;;5016737;28;20593;-43
2022/04/27 02:09:59;;;;;;;16.70;14.90;;;15.90;57.40;;;;;;5024505;28;20359;-43
2022/04/27 02:12:25;;;;;;;18.57;16.57;;;15.90;57.30;;;;;;5020618;28;20204;-43
2022/04/27 02:14:50;;;;;;;18.10;15.47;;;16.00;57.30;;;;;;5031397;28;20250;-43
2022/04/27 02:17:16;;;;;;;20.60;17.10;;;16.00;57.20;;;;;;5027426;28;20200;-43
2022/04/27 02:19:41;;;;;;;20.43;15.00;;;16.00;57.10;;;;;;5023036;28;20242;-44
2022/04/27 02:22:07;;;;;;;18.30;15.80;;;16.00;57.00;;;;;;5026829;28;20224;-44
2022/04/27 02:24:33;;;;;;;19.67;16.30;;;16.00;57.00;;;;;;5028548;28;20565;-44
2022/04/27 02:26:58;;;;;;;17.80;15.83;;;16.00;56.90;;;;;;5025946;28;20201;-44
2022/04/27 02:29:24;;;;;;;17.10;14.97;;;16.00;57.00;;;;;;5027899;28;20193;-44
2022/04/27 02:31:51;;;;;;;17.40;15.30;;;16.00;57.10;;;;;;5025832;28;20200;-43
2022/04/27 02:34:16;;;;;;;19.80;15.40;;;16.00;57.00;;;;;;5028306;28;20589;-44
2022/04/27 02:36:42;;;;;;;18.50;14.70;;;16.00;57.10;;;;;;5029392;28;20463;-43
2022/04/27 02:39:08;;;;;;;20.10;16.30;;;15.90;57.20;;;;;;5026881;28;20287;-44
2022/04/27 02:41:33;;;;;;;17.97;15.03;;;15.90;57.30;;;;;;5023788;28;20205;-43
2022/04/27 02:43:59;;;;;;;23.97;16.23;;;16.00;57.20;;;;;;5030223;28;20546;-45
2022/04/27 02:46:24;;;;;;;19.70;17.03;;;16.00;57.20;;;;;;5027206;28;20193;-44
2022/04/27 02:51:49;;;;;;;17.73;15.63;;;16.00;56.90;;;;;;5028892;28;20204;-46
2022/04/27 02:54:20;;;;;;;20.03;16.20;;;16.00;56.90;;;;;;5021263;28;20505;-44
2022/04/27 02:56:46;;;;;;;21.90;15.90;;;16.00;57.00;;;;;;5026592;28;20436;-44
2022/04/27 02:59:12;;;;;;;21.43;17.13;;;16.00;57.10;;;;;;5027014;28;20558;-45
2022/04/27 03:01:41;;;;;;;20.13;17.00;;;16.00;57.10;;;;;;5027448;28;20476;-44
2022/04/27 03:04:08;;;;;;;21.00;16.67;;;16.00;57.00;;;;;;5023824;28;20284;-43
2022/04/27 03:06:34;;;;;;;21.30;17.50;;;16.00;57.00;;;;;;5019707;28;20440;-43
2022/04/27 03:08:59;;;;;;;18.63;15.63;;;16.00;57.10;;;;;;5021570;28;20803;-43
2022/04/27 03:11:25;;;;;;;19.83;17.10;;;16.00;57.10;;;;;;5028443;28;20460;-43
2022/04/27 03:13:51;;;;;;;19.70;15.70;;;16.00;57.20;;;;;;5018264;28;20604;-44
2022/04/27 03:16:17;;;;;;;20.30;16.70;;;16.10;57.30;;;;;;5023298;28;20220;-44
2022/04/27 03:18:42;;;;;;;20.87;16.97;;;16.10;57.30;;;;;;5029449;28;20256;-43
2022/04/27 03:21:12;;;;;;;20.37;16.90;;;16.10;57.10;;;;;;5022803;28;20939;-43
2022/04/27 03:23:37;;;;;;;18.63;15.97;;;16.00;57.10;;;;;;5028930;28;20193;-45
2022/04/27 03:26:03;;;;;;;18.77;16.10;;;16.00;57.10;;;;;;5020026;28;20554;-44
2022/04/27 03:28:29;;;;;;;19.33;17.10;;;16.10;57.00;;;;;;5016321;28;20197;-46
2022/04/27 03:30:55;;;;;;;19.63;17.07;;;16.10;56.90;;;;;;5022614;28;20994;-44
2022/04/27 03:33:21;;;;;;;23.13;17.37;;;16.00;57.50;;;;;;5023731;28;20440;-44
2022/04/27 03:35:47;;;;;;;22.20;17.27;;;15.90;56.90;;;;;;5023930;28;20982;-44
2022/04/27 03:38:15;;;;;;;23.47;18.50;;;15.90;57.20;;;;;;5028970;28;20225;-44
2022/04/27 03:40:46;;;;;;;21.30;17.60;;;15.80;57.60;;;;;;5027353;28;20533;-43
2022/04/27 03:43:11;;;;;;;22.87;18.10;;;15.80;57.90;;;;;;5026855;28;20443;-44
2022/04/27 03:45:37;;;;;;;23.93;18.47;;;15.70;58.00;;;;;;5026826;28;20888;-45
2022/04/27 03:48:03;;;;;;;21.30;16.97;;;15.70;58.10;;;;;;5028944;28;20237;-45
2022/04/27 03:50:29;;;;;;;23.90;19.33;;;15.60;58.30;;;;;;5026239;28;20284;-44
2022/04/27 03:52:54;;;;;;;23.10;18.63;;;15.60;58.40;;;;;;5019872;28;20429;-44
2022/04/27 03:55:20;;;;;;;22.77;18.03;;;15.60;58.70;;;;;;5021946;28;20252;-43
2022/04/27 03:57:46;;;;;;;22.50;19.27;;;15.50;58.60;;;;;;5027881;28;20221;-43
2022/04/27 04:00:12;;;;;;;25.50;19.40;;;15.30;58.60;;;;;;5026355;28;20197;-45
2022/04/27 04:02:37;;;;;;;23.50;18.20;;;15.00;59.30;;;;;;5023680;28;20444;-43
2022/04/27 04:05:05;;;;;;;25.53;17.70;;;14.70;60.50;;;;;;5020936;28;20436;-44
2022/04/27 04:07:31;;;;;;;22.70;17.40;;;14.70;60.60;;;;;;5022025;28;20218;-44
2022/04/27 04:09:57;;;;;;;25.27;18.17;;;14.70;60.60;;;;;;5027543;28;20463;-44
2022/04/27 04:12:22;;;;;;;22.93;17.00;;;14.60;60.90;;;;;;5015759;28;20483;-43
2022/04/27 04:14:48;;;;;;;24.97;18.70;;;14.50;61.20;;;;;;5026563;28;20208;-43
2022/04/27 04:17:14;;;;;;;25.60;19.40;;;14.60;61.30;;;;;;5026624;28;20198;-46
2022/04/27 04:19:39;;;;;;;26.13;19.00;;;14.70;61.00;;;;;;5028057;28;20256;-44
2022/04/27 04:22:06;;;;;;;25.50;19.07;;;14.80;60.60;;;;;;5025390;28;20218;-44
2022/04/27 04:24:32;;;;;;;23.77;17.63;;;14.90;60.20;;;;;;5028847;28;20225;-45
2022/04/27 04:29:42;;;;;;;23.53;17.47;;;15.10;59.70;;;;;;5026262;28;20208;-44
2022/04/27 04:32:07;;;;;;;22.67;17.70;;;15.10;59.50;;;;;;5018494;28;20455;-44
2022/04/27 04:34:33;;;;;;;25.37;18.57;;;15.20;59.50;;;;;;5027924;28;20197;-44
2022/04/27 04:36:59;;;;;;;20.37;16.30;;;15.30;59.60;;;;;;5022939;28;20376;-43
2022/04/27 04:39:25;;;;;;;21.23;16.30;;;15.30;59.60;;;;;;5025232;28;20314;-44
2022/04/27 04:41:50;;;;;;;23.10;16.70;;;15.30;59.50;;;;;;5023694;28;20604;-45
2022/04/27 04:44:16;;;;;;;21.93;16.20;;;15.30;59.50;;;;;;5026084;28;20535;-45
2022/04/27 04:46:41;;;;;;;22.50;17.60;;;15.30;59.50;;;;;;5024293;28;20193;-43
2022/04/27 04:49:07;;;;;;;24.20;18.10;;;15.30;59.40;;;;;;5016983;28;20602;-43
2022/04/27 04:51:34;;;;;;;23.00;17.63;;;15.30;59.30;;;;;;5021796;28;20255;-43
2022/04/27 04:53:59;;;;;;;24.17;18.50;;;15.40;59.40;;;;;;5024124;28;20645;-43
2022/04/27 04:56:25;;;;;;;26.43;19.57;;;15.30;59.20;;;;;;5028394;28;20436;-45
2022/04/27 04:58:50;;;;;;;25.83;19.40;;;15.40;59.30;;;;;;5028166;28;20593;-44
2022/04/27 05:01:16;;;;;;;24.40;18.20;;;15.40;59.20;;;;;;5021421;28;20204;-44
2022/04/27 05:03:41;;;;;;;23.90;17.63;;;15.30;59.10;;;;;;5019761;28;20732;-43
2022/04/27 05:06:07;;;;;;;23.73;16.90;;;15.40;59.70;;;;;;5019694;28;20196;-43
2022/04/27 05:08:33;;;;;;;24.80;19.07;;;15.50;59.60;;;;;;5018918;28;20198;-44
2022/04/27 05:10:58;;;;;;;22.27;13.10;;;15.60;59.70;;;;;;5017470;28;20644;-44
2022/04/27 05:13:24;;;;;;;19.37;15.07;;;15.60;60.80;;;;;;5022073;28;20197;-44
2022/04/27 05:15:50;;;;;;;19.13;14.93;;;15.90;59.30;;;;;;5023824;28;20208;-45
2022/04/27 05:18:19;;;;;;;20.83;17.07;;;16.20;58.30;;;;;;5024065;28;20232;-44
2022/04/27 05:20:45;;;;;;;21.50;16.13;;;16.40;57.30;;;;;;5018042;28;20198;-46
2022/04/27 05:23:11;;;;;;;17.90;14.00;;;16.60;56.70;;;;;;5027016;28;20435;-44
2022/04/27 05:25:37;;;;;;;18.90;13.70;;;16.80;56.30;;;;;;5026947;28;20284;-44
2022/04/27 05:28:03;;;;;;;19.57;15.23;;;17.00;55.80;;;;;;5028699;28;21051;-45
2022/04/27 05:33:16;;;;;;;20.00;15.97;;;17.20;55.00;;;;;;5024620;28;20487;-45
2022/04/27 05:35:42;;;;;;;23.07;17.93;;;17.30;54.90;;;;;;5019706;28;20472;-44
2022/04/27 05:38:08;;;;;;;19.07;15.47;;;17.30;54.70;;;;;;5013345;28;20483;-47
2022/04/27 05:40:34;;;;;;;25.20;17.50;;;17.40;54.70;;;;;;5017285;28;20506;-47
2022/04/27 05:43:05;;;;;;;20.80;17.23;;;17.40;54.50;;;;;;5027207;28;20521;-44
2022/04/27 05:45:32;;;;;;;18.60;15.77;;;17.40;54.40;;;;;;5020267;28;20456;-44
2022/04/27 05:47:58;;;;;;;20.77;15.87;;;17.50;54.20;;;;;;5020458;28;20471;-44
2022/04/27 05:50:23;;;;;;;21.20;16.77;;;17.50;54.10;;;;;;5024160;28;20443;-45
2022/04/27 05:52:56;;;;;;;21.03;15.70;;;17.50;54.10;;;;;;5024809;28;20444;-44
2022/04/27 05:55:22;;;;;;;13.03;10.50;;;17.70;54.00;;;;;;5025467;28;20212;-46
2022/04/27 05:57:47;;;;;;;28.80;9.83;;;17.70;53.90;;;;;;5027511;28;20494;-45
2022/04/27 06:00:14;;;;;;;23.30;14.27;;;17.80;54.60;;;;;;5021818;28;20448;-47
2022/04/27 06:02:40;;;;;;;18.03;14.10;;;18.00;53.90;;;;;;5030837;28;20190;-47
2022/04/27 06:05:08;;;;;;;16.53;14.00;;;18.10;53.20;;;;;;5029717;28;20843;-46
2022/04/27 06:07:36;;;;;;;16.80;14.57;;;18.20;53.00;;;;;;5031310;28;20201;-44
2022/04/27 06:10:04;;;;;;;18.80;15.87;;;18.20;52.90;;;;;;5032682;28;20955;-45
2022/04/27 06:12:35;;;;;;;19.87;16.37;;;18.30;52.80;;;;;;5030247;28;20444;-50
2022/04/27 06:15:04;;;;;;;16.90;14.93;;;18.40;52.80;;;;;;5029332;28;20957;-45
2022/04/27 06:17:31;;;;;;;14.37;10.77;;;18.30;52.50;;;;;;5028862;28;21860;-44
2022/04/27 06:19:57;;;;;;;15.80;10.47;;;18.40;52.60;;;;;;5028088;28;20451;-48
2022/04/27 06:22:22;;;;;;;13.77;10.63;;;18.60;52.80;;;;;;5026442;28;20440;-48
2022/04/27 06:24:48;;;;;;;15.90;13.80;;;18.80;52.60;;;;;;5028449;28;20961;-45
2022/04/27 06:27:14;;;;;;;18.33;14.70;;;19.00;52.20;;;;;;5023142;28;20200;-48
2022/04/27 06:29:39;;;;;;;16.97;14.93;;;19.10;51.90;;;;;;5030449;28;20196;-47
2022/04/27 06:32:05;;;;;;;22.23;16.83;;;19.10;51.50;;;;;;5028869;28;20229;-46
2022/04/27 06:34:31;;;;;;;21.33;17.10;;;19.10;51.40;;;;;;5030974;28;20197;-44
2022/04/27 06:36:56;;;;;;;18.43;16.30;;;19.00;51.20;;;;;;5027923;28;20440;-44
2022/04/27 06:39:22;;;;;;;25.37;15.57;;;19.00;51.20;;;;;;5030044;28;20217;-46
2022/04/27 06:41:48;;;;;;;20.83;17.17;;;18.90;51.30;;;;;;5029679;28;20694;-45
2022/04/27 06:44:14;;;;;;;19.50;16.80;;;18.90;51.20;;;;;;5030826;28;20189;-44
2022/04/27 06:46:39;;;;;;;18.37;16.40;;;18.80;51.20;;;;;;5026766;28;20577;-45
2022/04/27 06:49:05;;;;;;;18.87;16.60;;;18.70;51.40;;;;;;5029004;28;20676;-45
2022/04/27 06:51:31;;;;;;;13.57;11.90;;;18.50;51.50;;;;;;5029345;28;20621;-45
2022/04/27 06:53:57;;;;;;;16.83;14.20;;;18.40;52.00;;;;;;5029890;28;20929;-44
2022/04/27 06:56:23;;;;;;;15.27;13.67;;;18.50;52.40;;;;;;5029652;28;20455;-45
2022/04/27 06:58:48;;;;;;;16.93;14.10;;;18.50;52.40;;;;;;5028950;28;20229;-45
2022/04/27 07:01:14;;;;;;;16.63;14.63;;;18.40;52.20;;;;;;5024160;28;20454;-45
2022/04/27 07:03:42;;;;;;;15.40;13.50;;;18.40;52.30;;;;;;5029612;28;20255;-45
2022/04/27 07:06:07;;;;;;;15.33;13.43;;;18.40;52.50;;;;;;5029046;28;20641;-45
2022/04/27 07:08:34;;;;;;;15.10;11.73;;;18.40;52.50;;;;;;5029089;28;20474;-44
2022/04/27 07:11:00;;;;;;;12.90;11.60;;;18.40;52.60;;;;;;5031598;28;20284;-46
2022/04/27 07:13:26;;;;;;;15.33;13.10;;;18.40;52.70;;;;;;5028521;28;20999;-44
2022/04/27 07:15:51;;;;;;;14.33;12.47;;;18.40;52.70;;;;;;5020174;28;20201;-47
2022/04/27 07:18:17;;;;;;;13.67;12.03;;;18.40;52.70;;;;;;5028145;28;20233;-44
2022/04/27 07:20:43;;;;;;;12.83;11.03;;;18.50;52.80;;;;;;5028401;28;21132;-45
2022/04/27 07:23:09;;;;;;;14.33;11.93;;;18.60;53.30;;;;;;5025863;28;20299;-45
2022/04/27 07:25:34;;;;;;;17.53;13.57;;;18.80;53.00;;;;;;5029087;28;20196;-46
2022/04/27 07:28:00;;;;;;;15.50;13.37;;;19.00;52.10;;;;;;5018912;28;20209;-43
2022/04/27 07:30:26;;;;;;;15.63;12.50;;;19.00;53.40;;;;;;5028214;28;20201;-43
2022/04/27 07:32:52;;;;;;;13.70;11.20;;;19.00;52.00;;;;;;5020850;28;20239;-44
2022/04/27 07:35:18;;;;;;;12.60;11.20;;;18.90;51.10;;;;;;5024204;28;21702;-43
2022/04/27 07:37:44;;;;;;;13.10;11.70;;;18.70;51.20;;;;;;5026813;28;20966;-44
2022/04/27 07:40:11;;;;;;;12.40;11.10;;;18.70;51.50;;;;;;5025538;28;20482;-43
2022/04/27 07:42:38;;;;;;;13.30;11.03;;;18.70;52.00;;;;;;5021804;28;21009;-43
2022/04/27 07:45:07;;;;;;;9.97;8.60;;;18.60;51.40;;;;;;5019388;28;20450;-43
2022/04/27 07:47:46;;;;;;;10.83;9.67;;;18.40;51.00;;;;;;5024658;28;20476;-44
2022/04/27 07:50:14;;;;;;;13.40;9.47;;;18.50;52.00;;;;;;5023175;28;20458;-45
2022/04/27 07:52:40;;;;;;;10.03;9.03;;;18.50;51.70;;;;;;5020194;28;20459;-43
2022/04/27 07:55:07;;;;;;;8.13;7.33;;;18.60;51.80;;;;;;5026555;28;20471;-44
2022/04/27 07:57:34;;;;;;;8.80;7.33;;;18.70;51.30;;;;;;5028540;28;20539;-43
2022/04/27 08:00:01;;;;;;;9.90;7.23;;;18.60;51.30;;;;;;5024565;28;20462;-43
2022/04/27 08:02:27;;;;;;;8.87;7.97;;;18.50;50.70;;;;;;5027573;28;20541;-45
2022/04/27 08:04:52;;;;;;;13.37;8.53;;;18.50;49.90;;;;;;5025348;28;20948;-44
2022/04/27 08:07:18;;;;;;;10.60;9.50;;;18.50;50.50;;;;;;5025726;28;20194;-43
2022/04/27 08:09:43;;;;;;;12.27;10.23;;;18.30;50.70;;;;;;5022973;28;20271;-43
2022/04/27 08:12:10;;;;;;;10.80;8.47;;;18.00;51.90;;;;;;5027990;28;20638;-43
2022/04/27 08:14:36;;;;;;;8.30;7.47;;;18.20;51.70;;;;;;5027585;28;20562;-43
2022/04/27 08:17:02;;;;;;;8.43;6.77;;;18.30;50.90;;;;;;5024909;28;20443;-44
2022/04/27 08:19:28;;;;;;;8.90;8.07;;;18.30;50.60;;;;;;5019164;28;20487;-43
2022/04/27 08:21:55;;;;;;;9.43;8.17;;;18.40;50.50;;;;;;5030699;28;20446;-43
2022/04/27 08:24:24;;;;;;;8.63;7.40;;;18.20;51.10;;;;;;5031405;28;20200;-43
2022/04/27 08:26:50;;;;;;;7.00;6.40;;;18.00;50.60;;;;;;5030139;28;20485;-43
2022/04/27 08:29:16;;;;;;;6.83;6.20;;;18.00;50.90;;;;;;5028933;28;20446;-45
2022/04/27 08:31:42;;;;;;;7.13;6.50;;;18.00;51.20;;;;;;5017233;28;20444;-44
2022/04/27 08:34:08;;;;;;;6.63;6.00;;;18.10;50.90;;;;;;5028301;28;20451;-45
2022/04/27 08:36:34;;;;;;;6.50;5.80;;;18.10;50.20;;;;;;5028550;28;20645;-43
2022/04/27 08:39:00;;;;;;;5.50;5.00;;;18.10;50.40;;;;;;5021790;28;20221;-46
2022/04/27 08:41:28;;;;;;;6.33;5.73;;;18.20;49.40;;;;;;5029258;28;20814;-45
2022/04/27 08:43:54;;;;;;;11.10;5.77;;;18.20;49.60;;;;;;5030698;28;20490;-43
2022/04/27 08:46:20;;;;;;;5.73;5.20;;;18.20;49.60;;;;;;5028618;28;20440;-44
2022/04/27 08:48:47;;;;;;;6.20;5.60;;;18.30;48.70;;;;;;5019914;28;20471;-45
2022/04/27 08:51:13;;;;;;;5.93;5.43;;;18.30;48.80;;;;;;5024413;28;20452;-45
2022/04/27 08:53:38;;;;;;;6.27;5.40;;;18.40;48.40;;;;;;5018503;28;20764;-44
2022/04/27 08:56:04;;;;;;;6.00;5.40;;;18.50;47.90;;;;;;5027572;28;20198;-43
2022/04/27 08:58:30;;;;;;;5.07;4.67;;;18.50;47.90;;;;;;5023880;28;20220;-43
2022/04/27 09:00:56;;;;;;;5.00;4.60;;;18.40;48.00;;;;;;5024644;28;20758;-45
2022/04/27 09:03:27;;;;;;;5.43;5.00;;;18.20;47.40;;;;;;5020257;28;20193;-44
2022/04/27 09:06:01;;;;;;;6.67;5.43;;;17.90;48.80;;;;;;5014211;28;20952;-45
2022/04/27 09:08:41;;;;;;;5.73;5.23;;;17.90;48.60;;;;;;5023682;28;20450;-44
2022/04/27 09:11:16;;;;;;;6.07;5.47;;;17.80;48.90;;;;;;5021714;28;20435;-43
2022/04/27 09:13:55;;;;;;;5.60;5.10;;;17.80;48.70;;;;;;5026876;28;20458;-44
2022/04/27 09:20:46;;;;;;;5.97;5.27;;;17.90;49.80;;;;;;5018486;28;20510;-43
2022/04/27 09:22:05;;;;;;;5.20;4.70;;;18.00;48.90;;;;;;5017410;28;20454;-44
2022/04/27 09:24:50;;;;;;;4.67;4.27;;;17.60;49.40;;;;;;5026783;28;20545;-44
2022/04/27 09:27:18;;;;;;;6.03;4.20;;;17.40;49.70;;;;;;5025373;28;20455;-45
2022/04/27 09:29:55;;;;;;;4.97;4.47;;;17.50;50.00;;;;;;5026792;28;20444;-44
2022/04/27 09:32:20;;;;;;;4.13;3.80;;;17.70;49.90;;;;;;5016286;28;20458;-43
2022/04/27 09:34:48;;;;;;;4.80;4.40;;;18.00;49.50;;;;;;5019745;28;20936;-45
2022/04/27 09:37:16;;;;;;;5.33;4.83;;;18.30;48.80;;;;;;5025700;28;20744;-45
2022/04/27 09:39:44;;;;;;;6.23;5.70;;;18.20;48.90;;;;;;5030288;28;21004;-44
2022/04/27 09:42:10;;;;;;;5.20;4.70;;;17.80;50.10;;;;;;5022697;28;20555;-44
2022/04/27 09:44:38;;;;;;;4.50;4.10;;;17.90;50.00;;;;;;5025153;28;20530;-43
2022/04/27 09:47:06;;;;;;;5.20;4.70;;;18.20;49.70;;;;;;5019901;28;20508;-44
2022/04/27 09:49:39;;;;;;;5.13;4.63;;;18.20;49.20;;;;;;5020307;28;20505;-43
2022/04/27 09:52:07;;;;;;;5.93;5.43;;;18.40;49.80;;;;;;5034288;28;20451;-43
2022/04/27 09:54:36;;;;;;;5.40;5.00;;;18.60;49.00;;;;;;5029422;28;20494;-44
2022/04/27 09:57:03;;;;;;;5.00;4.20;;;18.60;47.70;;;;;;5023255;28;20923;-42
2022/04/27 09:59:35;;;;;;;4.43;4.03;;;18.60;47.90;;;;;;5031838;28;20483;-42
2022/04/27 10:02:23;;;;;;;4.93;4.53;;;18.70;47.60;;;;;;5019807;28;20476;-42
2022/04/27 10:04:50;;;;;;;4.80;4.30;;;18.20;48.00;;;;;;5029216;28;20578;-42
2022/04/27 10:07:20;;;;;;;4.93;4.43;;;18.40;49.00;;;;;;5020700;28;20448;-43
2022/04/27 10:09:49;;;;;;;5.07;4.57;;;18.70;48.40;;;;;;5027224;28;20439;-43
2022/04/27 10:12:15;;;;;;;4.70;3.90;;;18.90;47.60;;;;;;5026929;28;20447;-44
2022/04/27 10:14:41;;;;;;;5.00;4.60;;;19.10;48.00;;;;;;5018511;28;20442;-43
2022/04/27 10:17:07;;;;;;;3.87;3.57;;;19.30;48.10;;;;;;5024716;28;20711;-42
2022/04/27 10:19:32;;;;;;;4.67;4.27;;;19.50;47.20;;;;;;5023862;28;20599;-42
2022/04/27 10:21:59;;;;;;;4.70;4.30;;;19.50;46.40;;;;;;5027231;28;20227;-42
2022/04/27 10:24:49;;;;;;;4.00;3.70;;;19.40;46.40;;;;;;5028025;28;20546;-42
2022/04/27 10:27:21;;;;;;;4.73;4.40;;;19.50;46.30;;;;;;5015727;28;20460;-41
2022/04/27 10:30:00;;;;;;;4.70;4.30;;;19.30;46.60;;;;;;5028086;28;20535;-42
2022/04/27 10:32:58;;;;;;;4.40;4.00;;;19.30;46.50;;;;;;5028610;28;20450;-42
2022/04/27 10:35:30;;;;;;;4.10;3.80;;;19.20;46.70;;;;;;4978670;28;21112;-43
2022/04/27 10:38:02;;;;;;;4.50;4.10;;;19.40;46.60;;;;;;5031148;28;20491;-43
2022/04/27 10:40:31;;;;;;;4.50;4.10;;;19.40;46.80;;;;;;5021521;28;20448;-43
2022/04/27 10:43:05;;;;;;;4.50;4.10;;;19.40;46.80;;;;;;5022007;28;20539;-42
2022/04/27 10:45:30;;;;;;;4.67;3.70;;;19.20;46.80;;;;;;5023796;28;20854;-42
2022/04/27 10:47:56;;;;;;;4.37;4.07;;;18.70;47.80;;;;;;5026111;28;20475;-42
2022/04/27 10:50:30;;;;;;;4.40;4.00;;;18.70;47.40;;;;;;5024272;28;20288;-41
2022/04/27 10:53:01;;;;;;;4.20;3.90;;;18.60;47.50;;;;;;5029579;28;20205;-42
2022/04/27 10:55:33;;;;;;;4.27;3.93;;;18.70;48.20;;;;;;5028696;28;20470;-43
2022/04/27 10:58:18;;;;;;;3.97;3.57;;;18.70;47.60;;;;;;5025905;28;20570;-42
2022/04/27 11:01:01;;;;;;;4.73;4.33;;;19.00;47.80;;;;;;5021808;28;20814;-45
2022/04/27 11:03:36;;;;;;;4.00;3.70;;;19.30;46.30;;;;;;5022899;28;20964;-42
2022/04/27 11:06:12;;;;;;;4.17;3.87;;;19.30;46.60;;;;;;5028209;28;20443;-42
2022/04/27 11:08:59;;;;;;;4.73;3.80;;;19.50;47.30;;;;;;5022543;28;20443;-43
2022/04/27 11:11:26;;;;;;;6.60;4.00;;;19.30;47.40;;;;;;5030281;28;20894;-42
2022/04/27 11:13:59;;;;;;;4.43;4.13;;;19.20;47.40;;;;;;5025867;28;20440;-42
2022/04/27 11:16:25;;;;;;;4.90;4.50;;;19.60;46.70;;;;;;5024308;28;20501;-42
2022/04/27 11:18:53;;;;;;;3.70;3.40;;;20.00;45.90;;;;;;5026387;28;20484;-42
2022/04/27 11:21:20;;;;;;;4.83;4.43;;;20.10;45.90;;;;;;5025414;28;20202;-42
2022/04/27 11:23:46;;;;;;;4.70;4.40;;;19.90;44.70;;;;;;5023361;28;20436;-43
2022/04/27 11:26:13;;;;;;;3.70;3.40;;;19.80;44.90;;;;;;5027859;28;20530;-43
2022/04/27 11:28:41;;;;;;;3.60;3.30;;;19.80;46.10;;;;;;5028508;28;20591;-43
2022/04/27 11:31:08;;;;;;;3.93;3.53;;;20.10;47.60;;;;;;5022328;28;20504;-45
2022/04/27 11:33:40;;;;;;;4.80;4.40;;;20.50;48.00;;;;;;5028679;28;20444;-46
2022/04/27 11:36:26;;;;;;;4.97;4.47;;;20.40;43.90;;;;;;5021651;28;21589;-42
2022/04/27 11:38:52;;;;;;;4.07;3.80;;;19.70;44.80;;;;;;5023201;28;20492;-44
2022/04/27 11:41:20;;;;;;;4.90;4.50;;;20.00;47.40;;;;;;5023167;28;20451;-42
2022/04/27 11:43:50;;;;;;;4.60;4.27;;;20.80;45.20;;;;;;5025464;28;20498;-47
2022/04/27 11:46:16;;;;;;;5.97;5.47;;;20.60;43.00;;;;;;5022084;28;21076;-43
2022/04/27 11:48:48;;;;;;;5.63;5.20;;;20.10;42.70;;;;;;5027069;28;20468;-43
2022/04/27 11:51:14;;;;;;;4.73;4.30;;;19.80;44.20;;;;;;5024534;28;20983;-43
2022/04/27 11:53:49;;;;;;;5.13;4.63;;;20.00;45.30;;;;;;5029810;28;20451;-44
2022/04/27 11:56:16;;;;;;;4.83;4.43;;;20.70;44.70;;;;;;5023996;28;20215;-43
2022/04/27 11:58:45;;;;;;;4.57;4.27;;;21.00;43.00;;;;;;5021138;28;20849;-44
2022/04/27 12:01:18;;;;;;;5.53;5.03;;;21.00;42.90;;;;;;5023243;28;20842;-45
2022/04/27 12:03:44;;;;;;;5.43;4.90;;;21.20;42.90;;;;;;5026652;28;21327;-44
2022/04/27 12:06:16;;;;;;;6.23;4.40;;;21.50;42.90;;;;;;5022282;28;20443;-43
2022/04/27 12:08:42;;;;;;;5.27;4.63;;;21.20;41.30;;;;;;5029556;28;20190;-44
2022/04/27 12:11:08;;;;;;;4.03;3.73;;;21.00;41.50;;;;;;5027211;28;20448;-45
2022/04/27 12:13:34;;;;;;;5.10;4.70;;;20.70;42.40;;;;;;5037989;28;20192;-43
2022/04/27 12:16:00;;;;;;;5.03;4.53;;;20.80;42.00;;;;;;5034520;28;20193;-43
2022/04/27 12:18:27;;;;;;;4.67;4.27;;;20.70;40.50;;;;;;5029368;28;20487;-46
2022/04/27 12:20:55;;;;;;;5.03;4.63;;;20.70;41.30;;;;;;5026328;28;20451;-42
2022/04/27 12:23:36;;;;;;;5.03;4.63;;;20.80;41.10;;;;;;5028273;28;20443;-45
2022/04/27 12:26:03;;;;;;;4.33;3.97;;;20.30;42.40;;;;;;5024738;28;20811;-46
2022/04/27 12:28:33;;;;;;;4.07;3.73;;;20.20;42.60;;;;;;5028564;28;20447;-43
2022/04/27 12:31:03;;;;;;;5.37;3.60;;;20.40;42.10;;;;;;5027990;28;20463;-43
2022/04/27 12:33:49;;;;;;;4.50;4.20;;;20.80;42.20;;;;;;5025153;28;20445;-43
2022/04/27 12:39:20;;;;;;;5.20;4.80;;;21.00;42.40;;;;;;5016807;28;20586;-43
2022/04/27 12:41:47;;;;;;;4.57;4.27;;;21.00;42.90;;;;;;5021648;28;20567;-45
2022/04/27 12:44:28;;;;;;;4.63;4.33;;;21.10;43.20;;;;;;5027292;28;20444;-44
2022/04/27 12:47:03;;;;;;;5.17;4.10;;;21.10;43.20;;;;;;5021376;28;20472;-43
2022/04/27 12:49:34;;;;;;;4.13;3.83;;;21.20;43.40;;;;;;5024706;28;20525;-43
2022/04/27 12:52:20;;;;;;;4.50;4.20;;;21.10;42.80;;;;;;5016746;28;20515;-47
2022/04/27 12:54:47;;;;;;;5.10;4.63;;;21.20;42.80;;;;;;5030562;28;20432;-44